Time;durP1;ratioP1;P1;durP2;ratioP2;P2;SDS_P1;SDS_P2;PMS_P1;PMS_P2;Temp;Humidity;BMP_temperature;BMP_pressure;BME280_temperature;BME280_humidity;BME280_pressure;Samples;Min_cycle;Max_cycle;Signal;HPM_P1;HPM_P2
2022/11/05 00:10:22;;;;;;;2.10;1.30;;;13.20;47.30;;;;;;5015095;28;20395;-76
2022/11/05 00:18:16;;;;;;;2.97;1.30;;;13.50;47.00;;;;;;5015190;28;20412;-74
2022/11/05 00:20:42;;;;;;;2.00;1.20;;;13.50;46.80;;;;;;5014544;28;20421;-74
2022/11/05 00:26:04;;;;;;;2.00;1.20;;;13.60;47.80;;;;;;4963936;28;20201;-74
2022/11/05 00:28:30;;;;;;;1.90;1.10;;;13.60;46.50;;;;;;5007159;28;20943;-76
2022/11/05 00:31:01;;;;;;;2.10;1.23;;;13.70;46.70;;;;;;5014132;28;20424;-76
2022/11/05 00:33:27;;;;;;;2.00;1.20;;;13.70;47.20;;;;;;5013786;28;20832;-74
2022/11/05 00:35:52;;;;;;;2.00;1.20;;;13.90;47.40;;;;;;5013657;28;20468;-74
2022/11/05 00:38:18;;;;;;;2.00;1.10;;;13.60;47.10;;;;;;5014214;28;20211;-73
2022/11/05 00:40:44;;;;;;;2.10;1.30;;;13.70;47.50;;;;;;5014098;28;20232;-80
2022/11/05 00:45:54;;;;;;;2.30;1.43;;;13.70;47.00;;;;;;5020722;28;20493;-73
2022/11/05 00:51:04;;;;;;;3.80;1.70;;;14.40;45.40;;;;;;5014108;28;20227;-73
2022/11/05 00:53:30;;;;;;;2.20;1.40;;;13.80;46.00;;;;;;5012136;28;20468;-74
2022/11/05 00:55:55;;;;;;;1.90;1.17;;;14.30;47.40;;;;;;5012351;28;20463;-75
2022/11/05 00:58:22;;;;;;;1.90;1.13;;;13.80;46.90;;;;;;5013825;28;20194;-74
2022/11/05 01:00:50;;;;;;;2.20;1.40;;;13.90;47.40;;;;;;5012580;28;20182;-74
2022/11/05 01:03:18;;;;;;;2.00;1.20;;;13.80;46.10;;;;;;5020965;28;20456;-74
2022/11/05 01:05:50;;;;;;;2.00;1.20;;;13.80;47.10;;;;;;5012770;28;20443;-75
2022/11/05 01:08:18;;;;;;;2.07;1.30;;;13.90;46.50;;;;;;5012480;28;20436;-75
2022/11/05 01:10:49;;;;;;;2.10;1.30;;;14.00;44.90;;;;;;5013492;28;20425;-81
2022/11/05 01:13:25;;;;;;;2.10;1.27;;;14.00;45.60;;;;;;5024129;28;20486;-73
2022/11/05 01:15:51;;;;;;;2.10;1.33;;;14.50;46.60;;;;;;5028189;28;20454;-74
2022/11/05 01:18:18;;;;;;;2.10;1.33;;;14.40;44.50;;;;;;5022109;28;20848;-73
2022/11/05 01:20:44;;;;;;;1.90;1.20;;;14.20;44.70;;;;;;5013321;28;20419;-81
2022/11/05 01:23:09;;;;;;;2.00;1.30;;;14.20;45.70;;;;;;5020141;28;20467;-77
2022/11/05 01:25:35;;;;;;;1.90;1.17;;;13.70;45.60;;;;;;5026183;28;20229;-74
2022/11/05 01:28:02;;;;;;;1.97;1.23;;;14.30;46.10;;;;;;5029802;28;20188;-73
2022/11/05 01:30:28;;;;;;;2.10;1.30;;;13.90;45.30;;;;;;5012838;28;20189;-77
2022/11/05 01:32:53;;;;;;;2.00;1.20;;;13.80;45.00;;;;;;5012385;28;20459;-74
2022/11/05 01:35:19;;;;;;;1.90;1.13;;;13.90;46.10;;;;;;5023596;28;20420;-73
2022/11/05 01:37:45;;;;;;;1.93;1.23;;;14.30;44.50;;;;;;5032714;28;20690;-73
2022/11/05 01:40:21;;;;;;;1.80;1.10;;;14.10;44.70;;;;;;5016989;28;20185;-74
2022/11/05 01:42:47;;;;;;;2.00;1.23;;;14.00;44.30;;;;;;5010369;28;20491;-74
2022/11/05 01:45:13;;;;;;;1.97;1.30;;;13.70;45.00;;;;;;5011517;28;20471;-73
2022/11/05 01:47:51;;;;;;;1.90;1.20;;;13.70;45.00;;;;;;5013022;28;20182;-74
2022/11/05 01:50:55;;;;;;;1.90;1.20;;;13.90;45.20;;;;;;5012081;28;20220;-75
2022/11/05 01:53:27;;;;;;;1.90;1.20;;;14.10;44.90;;;;;;4997680;28;20468;-73
2022/11/05 01:56:20;;;;;;;2.57;1.67;;;13.70;45.00;;;;;;5035871;28;20562;-74
2022/11/05 01:58:59;;;;;;;2.00;1.20;;;13.80;45.20;;;;;;4993573;28;20393;-75
2022/11/05 02:01:25;;;;;;;1.87;1.20;;;14.00;44.60;;;;;;5003803;28;20797;-73
2022/11/05 02:03:54;;;;;;;1.83;1.10;;;14.30;44.00;;;;;;5011179;28;20464;-74
2022/11/05 02:06:20;;;;;;;1.90;1.20;;;14.30;43.70;;;;;;5019811;28;20535;-73
2022/11/05 02:09:11;;;;;;;1.80;1.10;;;14.10;44.30;;;;;;5011774;28;20637;-73
2022/11/05 02:11:37;;;;;;;1.80;1.10;;;13.70;45.00;;;;;;5004756;28;20436;-74
2022/11/05 02:14:03;;;;;;;1.83;1.10;;;13.90;45.00;;;;;;5012322;28;20958;-77
2022/11/05 02:16:55;;;;;;;1.80;1.10;;;14.20;45.90;;;;;;5015750;28;20212;-79
2022/11/05 02:19:51;;;;;;;1.80;1.13;;;13.90;45.00;;;;;;5012023;28;20463;-77
2022/11/05 02:22:41;;;;;;;2.00;1.30;;;13.90;44.20;;;;;;5012318;28;20408;-74
2022/11/05 02:25:32;;;;;;;1.80;1.13;;;13.50;45.30;;;;;;5012367;28;20961;-77
2022/11/05 02:28:07;;;;;;;3.40;1.90;;;13.80;44.70;;;;;;5010466;28;21062;-80
2022/11/05 02:30:40;;;;;;;1.93;1.27;;;13.60;45.60;;;;;;5017911;28;20423;-73
2022/11/05 02:33:26;;;;;;;1.90;1.20;;;13.60;46.00;;;;;;5012049;28;20436;-76
2022/11/05 02:36:28;;;;;;;2.00;1.30;;;13.80;46.40;;;;;;5011953;28;20966;-74
2022/11/05 02:39:05;;;;;;;2.40;1.50;;;13.40;45.80;;;;;;5007676;28;21004;-74
2022/11/05 02:42:01;;;;;;;1.80;1.07;;;13.40;46.60;;;;;;5004162;28;20817;-73
2022/11/05 02:44:39;;;;;;;1.80;1.10;;;13.40;46.50;;;;;;5011005;28;20459;-73
2022/11/05 02:47:06;;;;;;;1.90;1.20;;;13.10;47.50;;;;;;5010234;28;20448;-76
2022/11/05 02:49:52;;;;;;;1.90;1.20;;;13.50;46.90;;;;;;5005386;28;20459;-74
2022/11/05 02:52:24;;;;;;;1.93;1.23;;;13.60;47.70;;;;;;5008793;28;20434;-77
2022/11/05 02:54:55;;;;;;;1.93;1.30;;;14.00;48.00;;;;;;5012685;28;21013;-78
2022/11/05 02:57:21;;;;;;;1.80;1.07;;;13.70;47.10;;;;;;5019192;28;20471;-78
2022/11/05 02:59:47;;;;;;;2.00;1.27;;;13.80;47.30;;;;;;5011166;28;20949;-73
2022/11/05 03:02:12;;;;;;;1.80;1.10;;;13.90;47.10;;;;;;5010787;28;20436;-74
2022/11/05 03:04:38;;;;;;;2.07;1.30;;;13.90;47.20;;;;;;5011493;28;20284;-74
2022/11/05 03:07:06;;;;;;;2.53;1.50;;;14.30;48.40;;;;;;5010963;28;20181;-78
2022/11/05 03:09:50;;;;;;;1.90;1.20;;;13.80;47.10;;;;;;5010676;28;20671;-74
2022/11/05 03:12:36;;;;;;;1.80;1.20;;;14.00;45.20;;;;;;5009808;28;20514;-73
2022/11/05 03:15:19;;;;;;;1.80;1.20;;;13.90;46.20;;;;;;5019680;28;20429;-76
2022/11/05 03:18:17;;;;;;;1.90;1.23;;;14.10;44.60;;;;;;5009891;28;20463;-74
2022/11/05 03:21:08;;;;;;;2.10;1.37;;;13.80;45.70;;;;;;4988806;28;20425;-84
2022/11/05 03:23:50;;;;;;;1.80;1.20;;;14.00;46.30;;;;;;5009523;28;20491;-75
2022/11/05 03:26:22;;;;;;;1.90;1.30;;;14.10;45.60;;;;;;5012805;28;20440;-73
2022/11/05 03:29:11;;;;;;;3.07;2.00;;;14.30;46.20;;;;;;5014322;28;20438;-73
2022/11/05 03:31:39;;;;;;;1.90;1.20;;;14.30;45.60;;;;;;4993998;28;21027;-73
2022/11/05 03:34:06;;;;;;;1.80;1.13;;;13.80;45.40;;;;;;5011048;28;20564;-78
2022/11/05 03:36:38;;;;;;;2.27;1.50;;;13.80;45.70;;;;;;5014338;28;20805;-73
2022/11/05 03:39:07;;;;;;;1.77;1.07;;;13.60;46.80;;;;;;5015277;28;20428;-74
2022/11/05 03:41:35;;;;;;;2.10;1.50;;;13.70;45.30;;;;;;5013832;28;20468;-75
2022/11/05 03:44:05;;;;;;;1.90;1.20;;;14.20;45.10;;;;;;5019088;28;20470;-78
2022/11/05 03:46:54;;;;;;;1.90;1.20;;;13.50;45.50;;;;;;5006969;28;20440;-76
2022/11/05 03:49:36;;;;;;;1.90;1.20;;;13.30;47.00;;;;;;5015030;28;20989;-73
2022/11/05 03:52:16;;;;;;;1.90;1.20;;;13.60;46.30;;;;;;5014400;28;20489;-74
2022/11/05 03:54:42;;;;;;;1.87;1.20;;;13.60;47.00;;;;;;5006757;28;20460;-74
2022/11/05 03:57:13;;;;;;;1.90;1.20;;;13.20;47.10;;;;;;5014613;28;20471;-74
2022/11/05 03:59:44;;;;;;;1.90;1.20;;;12.50;50.90;;;;;;5021464;28;20271;-76
2022/11/05 04:02:12;;;;;;;1.80;1.10;;;12.90;52.10;;;;;;5023836;28;20988;-74
2022/11/05 04:04:38;;;;;;;2.20;1.37;;;13.20;50.00;;;;;;5022339;28;20459;-76
2022/11/05 04:15:25;;;;;;;1.97;1.27;;;13.30;49.40;;;;;;5013113;28;20828;-73
2022/11/05 04:17:51;;;;;;;2.03;1.40;;;12.70;52.60;;;;;;5014418;28;20467;-73
2022/11/05 04:25:47;;;;;;;1.90;1.20;;;13.90;49.20;;;;;;5013037;28;20547;-73
2022/11/05 04:28:13;;;;;;;1.80;1.10;;;13.70;49.40;;;;;;5015308;28;20518;-73
2022/11/05 04:30:39;;;;;;;1.90;1.10;;;13.60;51.90;;;;;;5017122;28;20185;-76
2022/11/05 04:33:07;;;;;;;1.90;1.10;;;13.70;51.20;;;;;;5014156;28;20595;-73
2022/11/05 04:35:38;;;;;;;1.80;1.10;;;14.00;50.90;;;;;;5013796;28;20189;-73
2022/11/05 04:38:09;;;;;;;2.23;1.53;;;13.40;48.50;;;;;;5013842;28;20413;-76
2022/11/05 04:40:35;;;;;;;2.00;1.30;;;13.70;50.60;;;;;;5017802;28;20427;-74
2022/11/05 04:43:01;;;;;;;1.80;1.10;;;14.00;49.10;;;;;;5017705;28;20521;-74
2022/11/05 04:45:29;;;;;;;1.90;1.20;;;13.60;49.50;;;;;;5013316;28;20855;-74
2022/11/05 04:47:55;;;;;;;1.80;1.10;;;13.10;51.10;;;;;;5013052;28;20268;-74
2022/11/05 04:50:21;;;;;;;1.80;1.10;;;13.60;50.00;;;;;;5013975;28;20901;-77
2022/11/05 04:52:47;;;;;;;2.20;1.30;;;13.50;49.40;;;;;;5013315;28;20209;-75
2022/11/05 04:55:12;;;;;;;1.80;1.10;;;13.80;49.30;;;;;;5021002;28;20442;-73
2022/11/05 04:57:38;;;;;;;1.80;1.10;;;13.40;48.60;;;;;;5014355;28;20296;-76
2022/11/05 05:00:05;;;;;;;1.80;1.00;;;13.60;48.40;;;;;;5013905;28;20259;-73
2022/11/05 05:02:31;;;;;;;1.80;1.00;;;13.60;48.70;;;;;;5012770;28;20428;-74
2022/11/05 05:04:57;;;;;;;1.70;1.00;;;13.50;48.90;;;;;;5013223;28;20753;-74
2022/11/05 05:07:23;;;;;;;1.90;1.27;;;13.00;50.00;;;;;;5013018;28;20522;-77
2022/11/05 05:09:48;;;;;;;1.80;1.10;;;12.90;51.20;;;;;;5011122;28;20189;-74
2022/11/05 05:12:14;;;;;;;1.80;1.10;;;12.40;53.40;;;;;;5021217;28;20235;-73
2022/11/05 05:14:39;;;;;;;1.90;1.30;;;12.50;54.50;;;;;;5013343;28;20177;-73
2022/11/05 05:17:05;;;;;;;2.10;1.23;;;12.50;53.80;;;;;;5013595;28;20193;-76
2022/11/05 05:21:37;;;;;;;1.80;1.10;;;12.90;54.90;;;;;;5012503;28;20203;-73
2022/11/05 05:22:16;;;;;;;1.80;1.10;;;12.80;53.00;;;;;;5014264;28;20185;-73
2022/11/05 05:24:42;;;;;;;1.90;1.20;;;12.10;58.40;;;;;;5024324;28;20830;-75
2022/11/05 05:27:08;;;;;;;1.80;1.10;;;12.10;57.00;;;;;;5014066;28;20189;-76
2022/11/05 05:29:33;;;;;;;1.90;1.20;;;11.60;61.00;;;;;;5012419;28;20197;-78
2022/11/05 05:31:59;;;;;;;1.80;1.10;;;11.50;61.70;;;;;;5013102;28;20824;-73
2022/11/05 05:34:24;;;;;;;1.90;1.10;;;11.20;63.40;;;;;;5013036;28;20284;-73
2022/11/05 05:36:50;;;;;;;1.80;1.10;;;11.20;66.60;;;;;;5018711;28;20207;-73
2022/11/05 05:39:16;;;;;;;1.97;1.20;;;11.80;62.90;;;;;;5020809;28;20544;-77
2022/11/05 05:41:41;;;;;;;2.03;1.20;;;12.30;58.40;;;;;;5013022;28;20181;-73
2022/11/05 05:44:07;;;;;;;1.90;1.20;;;12.80;55.50;;;;;;5012293;28;20201;-73
2022/11/05 05:46:33;;;;;;;1.83;1.10;;;13.00;53.40;;;;;;5013136;28;20173;-73
2022/11/05 05:48:58;;;;;;;1.80;1.10;;;13.30;52.80;;;;;;5012693;28;20196;-74
2022/11/05 05:51:24;;;;;;;1.90;1.20;;;12.80;54.10;;;;;;5009877;28;20290;-77
2022/11/05 05:53:52;;;;;;;1.90;1.20;;;12.80;54.80;;;;;;5017135;28;20232;-73
2022/11/05 05:56:19;;;;;;;2.00;1.20;;;12.50;56.60;;;;;;5013849;28;20495;-73
2022/11/05 05:58:46;;;;;;;1.83;1.17;;;12.20;59.40;;;;;;5012511;28;20440;-73
2022/11/05 06:01:14;;;;;;;1.80;1.10;;;12.30;60.00;;;;;;5011632;28;20448;-73
2022/11/05 06:03:40;;;;;;;2.83;1.60;;;12.90;56.30;;;;;;5012328;28;20436;-81
2022/11/05 06:06:08;;;;;;;1.73;1.07;;;13.60;54.00;;;;;;5020187;28;20953;-73
2022/11/05 06:08:34;;;;;;;2.10;1.37;;;13.70;52.00;;;;;;5032220;28;20208;-76
2022/11/05 06:11:02;;;;;;;2.00;1.20;;;13.60;51.10;;;;;;5025205;28;20447;-73
2022/11/05 06:13:28;;;;;;;1.90;1.20;;;13.60;50.80;;;;;;5004037;28;20447;-73
2022/11/05 06:16:03;;;;;;;1.80;1.10;;;13.90;52.20;;;;;;5010743;28;20929;-73
2022/11/05 06:18:29;;;;;;;1.80;1.00;;;13.50;51.80;;;;;;5003568;28;20424;-81
2022/11/05 06:20:59;;;;;;;2.40;1.40;;;13.70;51.10;;;;;;5022866;28;20519;-76
2022/11/05 06:23:25;;;;;;;2.17;1.30;;;13.90;49.80;;;;;;5010276;28;20448;-74
2022/11/05 06:25:50;;;;;;;1.90;1.20;;;13.20;51.50;;;;;;5011752;28;20419;-73
2022/11/05 06:28:16;;;;;;;2.10;1.20;;;13.60;49.80;;;;;;5012274;28;20169;-73
2022/11/05 06:30:41;;;;;;;2.40;1.63;;;14.20;49.50;;;;;;5012229;28;20255;-73
2022/11/05 06:33:07;;;;;;;1.90;1.20;;;14.30;48.70;;;;;;5008667;28;20573;-76
2022/11/05 06:35:32;;;;;;;1.80;1.07;;;14.10;48.50;;;;;;5011235;28;20181;-73
2022/11/05 06:38:02;;;;;;;1.80;1.10;;;13.90;49.20;;;;;;5027436;28;20200;-73
2022/11/05 06:40:28;;;;;;;1.80;1.10;;;13.60;49.80;;;;;;5016363;28;20545;-73
2022/11/05 06:42:54;;;;;;;1.90;1.10;;;13.60;50.40;;;;;;5011072;28;20547;-74
2022/11/05 06:45:20;;;;;;;1.90;1.20;;;13.70;51.20;;;;;;5011897;28;20431;-77
2022/11/05 06:47:46;;;;;;;2.87;1.60;;;13.90;51.60;;;;;;5010603;28;20267;-73
2022/11/05 06:50:11;;;;;;;2.00;1.30;;;13.70;49.30;;;;;;5021062;28;20444;-76
2022/11/05 06:52:37;;;;;;;1.80;1.10;;;14.10;49.20;;;;;;5011295;28;20201;-75
2022/11/05 06:55:03;;;;;;;2.00;1.30;;;13.90;48.00;;;;;;5011065;28;20183;-73
2022/11/05 06:57:28;;;;;;;1.97;1.27;;;13.70;49.00;;;;;;5011785;28;20619;-73
2022/11/05 06:59:54;;;;;;;1.80;1.10;;;13.70;50.20;;;;;;5010541;28;20181;-74
2022/11/05 07:02:19;;;;;;;1.90;1.20;;;13.80;50.20;;;;;;5011346;28;20185;-78
2022/11/05 07:04:45;;;;;;;1.90;1.10;;;13.90;50.30;;;;;;5008584;28;20185;-73
2022/11/05 07:07:11;;;;;;;1.87;1.13;;;13.60;50.20;;;;;;5017705;28;20191;-74
2022/11/05 07:09:39;;;;;;;1.83;1.17;;;13.70;50.30;;;;;;5012050;28;20224;-73
2022/11/05 07:12:05;;;;;;;1.80;1.10;;;13.60;50.30;;;;;;5011508;28;20404;-73
2022/11/05 07:14:31;;;;;;;1.80;1.10;;;13.60;50.00;;;;;;5010521;28;20970;-73
2022/11/05 07:16:56;;;;;;;1.80;1.10;;;14.10;50.40;;;;;;5010796;28;20467;-74
2022/11/05 07:19:22;;;;;;;1.80;1.10;;;13.90;49.70;;;;;;5011483;28;20176;-77
2022/11/05 07:21:49;;;;;;;1.80;1.10;;;14.10;49.70;;;;;;5018681;28;20181;-73
2022/11/05 07:24:15;;;;;;;1.80;1.00;;;13.80;49.50;;;;;;5033701;28;20228;-73
2022/11/05 07:26:40;;;;;;;2.00;1.27;;;13.80;50.60;;;;;;5010343;28;20464;-74
2022/11/05 07:29:06;;;;;;;2.23;1.37;;;13.40;50.00;;;;;;5011450;28;20246;-73
2022/11/05 07:31:32;;;;;;;1.80;1.10;;;13.30;52.30;;;;;;5011346;28;20380;-73
2022/11/05 07:33:58;;;;;;;1.80;1.20;;;12.70;53.40;;;;;;5010310;28;20699;-73
2022/11/05 07:36:24;;;;;;;1.80;1.10;;;12.80;53.40;;;;;;5007749;28;20686;-73
2022/11/05 07:38:49;;;;;;;2.10;1.40;;;13.20;52.30;;;;;;5007399;28;20428;-73
2022/11/05 07:41:16;;;;;;;1.80;1.10;;;12.90;52.10;;;;;;5010328;28;20438;-74
2022/11/05 07:43:41;;;;;;;1.90;1.20;;;13.20;52.30;;;;;;5011177;28;20189;-74
2022/11/05 07:46:07;;;;;;;2.00;1.27;;;14.10;49.50;;;;;;5007886;28;20435;-77
2022/11/05 07:48:32;;;;;;;1.73;1.10;;;14.40;48.40;;;;;;5008670;28;20251;-73
2022/11/05 07:50:58;;;;;;;1.90;1.20;;;14.10;49.00;;;;;;5006940;28;20267;-76
2022/11/05 07:53:24;;;;;;;1.80;1.10;;;13.30;51.40;;;;;;5007848;28;20244;-89
2022/11/05 07:55:51;;;;;;;1.90;1.20;;;12.80;53.00;;;;;;5011077;28;20193;-90
2022/11/05 07:58:17;;;;;;;1.80;1.10;;;13.40;51.60;;;;;;5018813;28;20177;-90
2022/11/05 08:00:43;;;;;;;1.90;1.20;;;13.60;49.30;;;;;;5010157;28;20814;-80
2022/11/05 08:03:16;;;;;;;1.90;1.30;;;13.00;53.10;;;;;;5009182;28;20487;-76
2022/11/05 08:05:44;;;;;;;4.20;2.13;;;13.60;52.40;;;;;;5016286;28;20208;-76
2022/11/05 08:08:12;;;;;;;1.80;1.10;;;13.50;51.10;;;;;;5023645;28;20420;-76
2022/11/05 08:10:38;;;;;;;1.80;1.10;;;13.00;51.40;;;;;;5022635;28;20985;-76
2022/11/05 08:13:05;;;;;;;1.90;1.20;;;12.80;56.50;;;;;;5015752;28;20533;-76
2022/11/05 08:15:31;;;;;;;1.90;1.20;;;12.50;55.90;;;;;;5011129;28;20435;-77
2022/11/05 08:18:03;;;;;;;1.90;1.27;;;12.90;57.10;;;;;;5013179;28;21271;-76
2022/11/05 08:20:29;;;;;;;1.90;1.20;;;12.10;59.30;;;;;;5007616;28;20511;-76
2022/11/05 08:22:55;;;;;;;2.87;1.70;;;11.80;62.00;;;;;;5012726;28;21030;-76
2022/11/05 08:25:21;;;;;;;1.80;1.20;;;12.00;62.70;;;;;;5010891;28;20424;-76
2022/11/05 08:27:53;;;;;;;2.10;1.30;;;12.70;58.90;;;;;;5012518;28;20827;-76
2022/11/05 08:30:18;;;;;;;1.80;1.17;;;12.90;56.30;;;;;;5011326;28;20430;-79
2022/11/05 08:32:44;;;;;;;1.80;1.13;;;13.20;54.90;;;;;;5010698;28;20463;-76
2022/11/05 08:35:10;;;;;;;2.37;1.40;;;13.00;54.50;;;;;;5011290;28;20204;-76
2022/11/05 08:37:35;;;;;;;1.90;1.20;;;12.50;56.90;;;;;;5010856;28;20292;-76
2022/11/05 08:40:01;;;;;;;1.80;1.10;;;12.90;55.70;;;;;;5013787;28;20232;-76
2022/11/05 08:42:26;;;;;;;1.83;1.13;;;12.90;53.60;;;;;;5011830;28;20192;-78
2022/11/05 08:44:52;;;;;;;1.77;1.07;;;13.10;53.80;;;;;;5014083;28;20169;-76
2022/11/05 08:47:17;;;;;;;1.77;1.10;;;12.80;54.60;;;;;;5015146;28;20181;-76
2022/11/05 08:49:43;;;;;;;2.30;1.40;;;11.90;60.70;;;;;;5025469;28;20176;-76
2022/11/05 08:52:08;;;;;;;1.80;1.20;;;11.80;62.20;;;;;;5023857;28;20189;-77
2022/11/05 08:54:34;;;;;;;1.80;1.17;;;12.40;60.70;;;;;;5013264;28;20216;-76
2022/11/05 08:57:00;;;;;;;1.80;1.10;;;12.80;58.40;;;;;;5013187;28;20220;-79
2022/11/05 08:59:28;;;;;;;1.90;1.23;;;13.20;55.40;;;;;;5012363;28;20185;-79
2022/11/05 09:01:53;;;;;;;2.00;1.37;;;13.60;54.00;;;;;;5017567;28;20193;-80
2022/11/05 09:04:19;;;;;;;2.40;1.40;;;13.50;54.10;;;;;;5015543;28;20543;-81
2022/11/05 09:06:45;;;;;;;1.80;1.10;;;13.30;53.90;;;;;;5014154;28;20551;-78
2022/11/05 09:09:10;;;;;;;2.30;1.43;;;13.50;53.90;;;;;;5017042;28;20236;-80
2022/11/05 09:11:36;;;;;;;2.00;1.30;;;13.90;52.20;;;;;;5028634;28;20235;-79
2022/11/05 09:14:02;;;;;;;2.30;1.60;;;13.60;52.30;;;;;;5017074;28;20255;-75
2022/11/05 09:16:28;;;;;;;1.90;1.23;;;13.90;52.50;;;;;;5012476;28;20974;-76
2022/11/05 09:18:55;;;;;;;1.90;1.20;;;13.70;51.00;;;;;;5013363;28;20518;-81
2022/11/05 09:21:20;;;;;;;1.90;1.20;;;14.20;50.00;;;;;;5026748;28;20938;-77
2022/11/05 09:23:46;;;;;;;1.97;1.30;;;14.00;50.30;;;;;;5011802;28;20563;-76
2022/11/05 09:26:13;;;;;;;1.80;1.10;;;14.00;50.10;;;;;;5013517;28;20239;-77
2022/11/05 09:28:39;;;;;;;1.80;1.10;;;14.10;49.10;;;;;;5011476;28;20923;-78
2022/11/05 09:31:07;;;;;;;1.90;1.20;;;13.50;49.40;;;;;;5014869;28;20808;-79
2022/11/05 09:33:34;;;;;;;2.87;1.80;;;12.10;60.30;;;;;;5010172;28;20459;-76
2022/11/05 09:35:59;;;;;;;1.90;1.20;;;11.70;61.60;;;;;;5012653;28;20794;-76
2022/11/05 09:38:25;;;;;;;1.80;1.20;;;11.90;61.70;;;;;;5013339;28;20432;-77
2022/11/05 09:41:11;;;;;;;2.00;1.30;;;12.00;61.30;;;;;;5012347;28;20189;-77
2022/11/05 09:44:03;;;;;;;2.00;1.27;;;12.10;60.70;;;;;;5005915;28;20263;-78
2022/11/05 09:46:52;;;;;;;1.90;1.20;;;12.40;58.20;;;;;;5008828;28;20830;-79
2022/11/05 09:49:42;;;;;;;1.70;1.10;;;13.10;55.90;;;;;;5012144;28;20468;-79
2022/11/05 09:52:15;;;;;;;1.80;1.20;;;12.90;55.20;;;;;;5012599;28;20490;-77
2022/11/05 09:54:41;;;;;;;1.80;1.10;;;12.40;54.90;;;;;;5019159;28;20555;-77
2022/11/05 09:57:19;;;;;;;1.83;1.20;;;12.20;56.70;;;;;;5012677;28;21006;-78
2022/11/05 09:59:50;;;;;;;2.20;1.33;;;12.20;57.80;;;;;;5010013;28;20185;-76
2022/11/05 10:02:31;;;;;;;1.80;1.13;;;12.40;57.90;;;;;;5010221;28;20979;-76
2022/11/05 10:05:01;;;;;;;1.83;1.20;;;12.50;54.90;;;;;;5019147;28;20427;-78
2022/11/05 10:07:29;;;;;;;2.00;1.30;;;12.10;57.60;;;;;;5024053;28;20407;-76
2022/11/05 10:10:03;;;;;;;1.90;1.20;;;12.70;57.00;;;;;;5032244;28;20407;-76
2022/11/05 10:12:36;;;;;;;1.83;1.20;;;12.30;56.50;;;;;;5025063;28;20519;-76
2022/11/05 10:15:20;;;;;;;1.80;1.10;;;12.40;54.60;;;;;;5020356;28;20812;-77
2022/11/05 10:17:51;;;;;;;1.83;1.10;;;12.00;55.80;;;;;;5012569;28;20563;-77
2022/11/05 10:20:26;;;;;;;1.83;1.23;;;12.00;55.80;;;;;;5012440;28;20463;-78
2022/11/05 10:22:58;;;;;;;1.97;1.30;;;11.70;56.10;;;;;;5010015;28;21020;-76
2022/11/05 10:25:29;;;;;;;1.90;1.30;;;12.00;57.80;;;;;;5008891;28;20431;-79
2022/11/05 10:27:56;;;;;;;2.00;1.40;;;11.70;57.20;;;;;;5009613;28;20503;-78
2022/11/05 10:30:22;;;;;;;1.90;1.20;;;11.80;55.20;;;;;;5009302;28;20581;-76
2022/11/05 10:32:53;;;;;;;2.00;1.30;;;12.30;54.70;;;;;;5009563;28;20451;-77
2022/11/05 10:35:21;;;;;;;2.10;1.40;;;12.60;53.80;;;;;;5009209;28;20437;-79
2022/11/05 10:37:49;;;;;;;1.70;1.00;;;12.70;51.10;;;;;;5012272;28;20464;-76
2022/11/05 10:40:42;;;;;;;2.00;1.30;;;12.60;53.70;;;;;;5010989;28;20524;-75
2022/11/05 10:43:19;;;;;;;2.00;1.33;;;12.70;53.80;;;;;;5009862;28;20954;-77
2022/11/05 10:46:17;;;;;;;1.90;1.20;;;12.50;54.00;;;;;;5006248;28;20459;-76
2022/11/05 10:49:04;;;;;;;2.60;1.60;;;12.70;53.80;;;;;;5007724;28;20447;-80
2022/11/05 10:51:31;;;;;;;2.87;1.53;;;13.10;51.50;;;;;;5012570;28;20412;-77
2022/11/05 10:54:02;;;;;;;2.00;1.30;;;12.80;53.60;;;;;;5011115;28;20799;-76
2022/11/05 10:56:39;;;;;;;1.80;1.20;;;12.80;53.00;;;;;;5012172;28;20943;-76
2022/11/05 10:59:18;;;;;;;1.80;1.20;;;12.90;51.30;;;;;;5012179;28;20438;-76
2022/11/05 11:01:43;;;;;;;1.77;1.10;;;12.90;52.90;;;;;;5019635;28;20488;-80
2022/11/05 11:04:26;;;;;;;2.00;1.20;;;13.40;51.70;;;;;;5028842;28;20453;-76
2022/11/05 11:06:57;;;;;;;1.77;1.10;;;13.20;50.80;;;;;;5031687;28;20253;-76
2022/11/05 11:09:29;;;;;;;1.80;1.20;;;12.70;50.20;;;;;;5031490;28;20415;-76
2022/11/05 11:12:12;;;;;;;1.80;1.10;;;12.30;51.50;;;;;;5021789;28;20447;-76
2022/11/05 11:14:38;;;;;;;2.13;1.47;;;12.30;52.50;;;;;;4991895;28;20441;-76
2022/11/05 11:17:25;;;;;;;1.90;1.30;;;12.40;50.80;;;;;;4992246;28;20465;-78
2022/11/05 11:19:56;;;;;;;1.90;1.30;;;12.30;51.40;;;;;;4992135;28;20412;-76
2022/11/05 11:22:21;;;;;;;1.90;1.30;;;12.30;52.60;;;;;;5014646;28;20443;-76
2022/11/05 11:24:52;;;;;;;1.80;1.20;;;12.70;48.60;;;;;;5025269;28;20422;-76
2022/11/05 11:27:27;;;;;;;1.80;1.20;;;12.80;49.00;;;;;;5031391;28;20160;-76
2022/11/05 11:30:00;;;;;;;1.83;1.27;;;13.40;48.60;;;;;;5031592;28;20527;-77
2022/11/05 11:32:31;;;;;;;2.00;1.33;;;13.60;46.60;;;;;;5022185;28;20439;-76
2022/11/05 11:34:57;;;;;;;1.90;1.23;;;13.70;45.00;;;;;;5013316;28;20443;-76
2022/11/05 11:37:32;;;;;;;1.90;1.30;;;13.30;45.70;;;;;;5011300;28;20465;-76
2022/11/05 11:40:04;;;;;;;1.90;1.30;;;13.30;45.90;;;;;;5008571;28;20277;-76
2022/11/05 11:42:36;;;;;;;2.17;1.60;;;13.40;45.50;;;;;;5008536;28;20440;-76
2022/11/05 11:45:16;;;;;;;2.10;1.50;;;13.80;46.20;;;;;;5009831;28;20495;-76
2022/11/05 11:47:44;;;;;;;2.73;1.57;;;13.90;43.70;;;;;;5024064;28;20444;-76
2022/11/05 11:50:33;;;;;;;2.33;1.60;;;14.20;42.20;;;;;;5009789;28;20441;-77
2022/11/05 11:53:23;;;;;;;2.00;1.40;;;14.80;42.60;;;;;;5011222;28;20481;-78
2022/11/05 11:56:24;;;;;;;2.20;1.60;;;14.30;41.40;;;;;;5014833;28;20831;-78
2022/11/05 11:58:52;;;;;;;2.07;1.47;;;14.30;41.10;;;;;;4951833;29;20541;-78
2022/11/05 12:01:29;;;;;;;2.10;1.30;;;14.00;44.70;;;;;;4948855;28;20436;-77
2022/11/05 12:04:16;;;;;;;1.80;1.20;;;14.50;45.60;;;;;;4960622;28;20968;-76
2022/11/05 12:06:59;;;;;;;2.00;1.40;;;14.90;42.20;;;;;;4973485;28;20402;-77
2022/11/05 12:09:30;;;;;;;1.90;1.20;;;15.00;41.30;;;;;;4971959;28;20483;-76
2022/11/05 12:12:13;;;;;;;1.90;1.30;;;13.90;43.90;;;;;;4960466;28;20876;-77
2022/11/05 12:15:11;;;;;;;1.80;1.20;;;13.40;46.00;;;;;;4953864;29;20942;-76
2022/11/05 12:17:51;;;;;;;2.10;1.30;;;13.80;46.90;;;;;;4896713;29;20484;-76
2022/11/05 12:20:22;;;;;;;1.90;1.30;;;13.30;46.50;;;;;;4896399;29;20425;-75
2022/11/05 12:23:03;;;;;;;1.80;1.20;;;12.70;50.10;;;;;;4901429;29;20476;-75
2022/11/05 12:26:24;;;;;;;2.40;1.60;;;13.10;48.30;;;;;;4909901;29;20842;-75
2022/11/05 12:29:19;;;;;;;1.93;1.40;;;12.70;48.40;;;;;;4858248;29;20530;-76
2022/11/05 12:31:53;;;;;;;1.80;1.20;;;13.30;49.10;;;;;;4863077;29;20831;-75
2022/11/05 12:34:45;;;;;;;1.80;1.20;;;13.90;47.30;;;;;;4873244;29;20525;-75
2022/11/05 12:37:20;;;;;;;1.70;1.10;;;13.40;47.30;;;;;;4922669;29;20539;-75
2022/11/05 12:40:10;;;;;;;1.70;1.10;;;13.40;47.00;;;;;;4928126;29;20485;-75
2022/11/05 12:42:56;;;;;;;1.70;1.10;;;13.50;47.70;;;;;;4910018;29;20439;-76
2022/11/05 12:45:41;;;;;;;1.70;1.30;;;13.60;47.10;;;;;;4926381;29;20439;-75
2022/11/05 12:48:25;;;;;;;1.80;1.30;;;13.20;48.50;;;;;;4918013;29;20444;-76
2022/11/05 12:50:51;;;;;;;4.07;1.97;;;13.70;49.10;;;;;;4914546;29;21320;-77
2022/11/05 12:53:44;;;;;;;1.70;1.20;;;13.90;48.50;;;;;;4901088;29;20512;-76
2022/11/05 12:56:19;;;;;;;1.80;1.23;;;14.10;47.80;;;;;;4961015;28;20222;-76
2022/11/05 12:58:52;;;;;;;2.67;1.67;;;14.80;42.30;;;;;;4953379;29;20430;-76
2022/11/05 13:01:30;;;;;;;1.80;1.20;;;14.50;43.40;;;;;;4953200;29;20487;-75
2022/11/05 13:04:05;;;;;;;1.70;1.20;;;14.60;43.40;;;;;;4958891;28;20465;-76
2022/11/05 13:06:41;;;;;;;2.27;1.50;;;13.60;47.20;;;;;;5018260;28;20469;-78
2022/11/05 13:09:17;;;;;;;2.00;1.50;;;14.10;46.90;;;;;;5033512;28;20418;-77
2022/11/05 13:11:55;;;;;;;2.00;1.30;;;14.10;44.70;;;;;;5033771;28;20442;-76
2022/11/05 13:14:33;;;;;;;1.77;1.13;;;13.90;43.90;;;;;;5026528;28;20495;-77
2022/11/05 13:17:05;;;;;;;1.80;1.27;;;13.70;46.70;;;;;;5025418;28;20557;-77
2022/11/05 13:19:47;;;;;;;5.50;2.47;;;14.10;45.40;;;;;;5033854;28;20853;-78
2022/11/05 13:22:28;;;;;;;1.80;1.30;;;13.80;45.40;;;;;;5028680;28;20431;-76
2022/11/05 13:25:01;;;;;;;1.77;1.23;;;13.80;45.50;;;;;;5044079;28;20941;-77
2022/11/05 13:28:04;;;;;;;1.93;1.30;;;14.40;44.90;;;;;;5033449;28;20961;-76
2022/11/05 13:30:36;;;;;;;1.93;1.40;;;14.30;45.30;;;;;;5033366;28;20425;-76
2022/11/05 13:33:26;;;;;;;2.50;1.50;;;14.80;42.10;;;;;;5025338;28;20467;-76
2022/11/05 13:39:19;;;;;;;1.90;1.30;;;15.20;40.40;;;;;;5033844;28;20895;-77
2022/11/05 13:42:11;;;;;;;1.93;1.30;;;15.20;40.00;;;;;;5025952;28;20428;-78
2022/11/05 13:45:00;;;;;;;1.90;1.30;;;15.10;43.20;;;;;;5012840;28;20556;-78
2022/11/05 13:47:34;;;;;;;1.97;1.37;;;15.30;40.10;;;;;;5028130;28;20842;-77
2022/11/05 13:50:00;;;;;;;2.10;1.47;;;15.30;40.70;;;;;;5011752;28;20432;-77
2022/11/05 13:52:37;;;;;;;1.90;1.33;;;15.30;41.50;;;;;;5009931;28;20436;-76